createdAt,value
2017-05-20T00:00:11.475Z,0
2017-05-20T00:01:10.534Z,0
2017-05-20T00:02:11.440Z,0
2017-05-20T00:03:11.096Z,0
2017-05-20T00:04:11.098Z,0
2017-05-20T00:05:11.380Z,0
2017-05-20T00:06:10.746Z,0
2017-05-20T00:07:10.424Z,0
2017-05-20T00:08:10.708Z,0
2017-05-20T00:09:10.707Z,0
2017-05-20T00:10:11.279Z,0
2017-05-20T00:11:11.254Z,0
2017-05-20T00:12:10.335Z,0
2017-05-20T00:13:10.923Z,0
2017-05-20T00:14:10.903Z,0
2017-05-20T00:15:11.176Z,0
2017-05-20T00:16:10.865Z,0
2017-05-20T00:17:10.840Z,0
2017-05-20T00:18:10.527Z,0
2017-05-20T00:19:10.814Z,0
2017-05-20T00:20:10.485Z,0
2017-05-20T00:21:10.773Z,0
2017-05-20T00:22:10.751Z,0
2017-05-20T00:23:10.731Z,0
2017-05-20T00:24:10.719Z,0
2017-05-20T00:25:10.388Z,0
2017-05-20T00:26:10.687Z,0
2017-05-20T00:27:10.668Z,0
2017-05-20T00:28:10.937Z,0
2017-05-20T00:29:10.925Z,0
2017-05-20T00:30:10.918Z,0
2017-05-20T00:31:10.941Z,0
2017-05-20T00:32:10.571Z,0
2017-05-20T00:33:10.851Z,0
2017-05-20T00:34:10.601Z,0
2017-05-20T00:35:10.825Z,0
2017-05-20T00:36:10.810Z,0
2017-05-20T00:37:10.490Z,0
2017-05-20T00:38:10.778Z,0
2017-05-20T00:39:10.454Z,0
2017-05-20T00:40:10.720Z,0
2017-05-20T00:41:10.709Z,0
2017-05-20T00:42:10.459Z,0
2017-05-20T00:43:10.368Z,0
2017-05-20T00:44:10.348Z,0
2017-05-20T00:45:10.033Z,0
2017-05-20T00:46:10.618Z,0
2017-05-20T00:47:10.606Z,0
2017-05-20T00:48:10.586Z,0
2017-05-20T00:49:10.266Z,0
2017-05-20T00:50:09.938Z,0
2017-05-20T00:51:09.924Z,0
2017-05-20T00:52:10.212Z,0
2017-05-20T00:53:10.503Z,0
2017-05-20T00:54:10.473Z,0
2017-05-20T00:55:10.151Z,0
2017-05-20T00:56:09.842Z,0
2017-05-20T00:57:10.122Z,0
2017-05-20T00:58:10.111Z,0
2017-05-20T00:59:10.076Z,0
2017-05-20T01:00:09.766Z,0
2017-05-20T01:01:09.738Z,0
2017-05-20T01:02:09.726Z,0
2017-05-20T01:03:09.699Z,0
2017-05-20T01:04:09.988Z,0
2017-05-20T01:05:10.296Z,0
2017-05-20T01:06:10.260Z,0
2017-05-20T01:07:10.243Z,0
2017-05-20T01:08:09.926Z,0
2017-05-20T01:09:10.203Z,0
2017-05-20T01:10:10.186Z,0
2017-05-20T01:11:09.871Z,0
2017-05-20T01:12:09.548Z,0
2017-05-20T01:13:10.153Z,0
2017-05-20T01:14:09.502Z,0
2017-05-20T01:15:09.786Z,0
2017-05-20T01:16:10.079Z,0
2017-05-20T01:17:09.739Z,0
2017-05-20T01:18:09.135Z,0
2017-05-20T01:19:10.031Z,0
2017-05-20T01:20:10.015Z,0
2017-05-20T01:21:09.984Z,0
2017-05-20T01:22:09.654Z,0
2017-05-20T01:23:09.335Z,0
2017-05-20T01:24:09.617Z,0
2017-05-20T01:25:09.608Z,0
2017-05-20T01:26:09.595Z,0
2017-05-20T01:27:09.873Z,0
2017-05-20T01:28:09.541Z,0
2017-05-20T01:29:08.622Z,0
2017-05-20T01:30:09.506Z,0
2017-05-20T01:31:09.195Z,0
2017-05-20T01:32:09.489Z,0
2017-05-20T01:33:09.151Z,0
2017-05-20T01:34:09.136Z,0
2017-05-20T01:35:09.418Z,0
2017-05-20T01:36:09.395Z,0
2017-05-20T01:37:09.381Z,0
2017-05-20T01:38:09.679Z,0
2017-05-20T01:39:09.650Z,0
2017-05-20T01:40:09.321Z,0
2017-05-20T01:41:09.310Z,0
2017-05-20T01:42:09.579Z,0
2017-05-20T01:43:09.296Z,0
2017-05-20T01:44:09.565Z,0
2017-05-20T01:45:09.235Z,0
2017-05-20T01:46:08.916Z,0
2017-05-20T01:47:09.199Z,0
2017-05-20T01:48:09.183Z,0
2017-05-20T01:49:09.155Z,0
2017-05-20T01:50:09.446Z,0
2017-05-20T01:51:09.419Z,0
2017-05-20T01:52:09.106Z,0
2017-05-20T01:53:09.390Z,0
2017-05-20T01:54:09.369Z,0
2017-05-20T01:55:09.349Z,0
2017-05-20T01:56:09.329Z,0
2017-05-20T01:57:09.338Z,0
2017-05-20T01:58:09.284Z,0
2017-05-20T01:59:09.266Z,0
2017-05-20T02:00:09.254Z,0
2017-05-20T02:01:09.293Z,0
2017-05-20T02:02:09.225Z,0
2017-05-20T02:03:08.886Z,0
2017-05-20T02:04:09.182Z,0
2017-05-20T02:05:09.180Z,0
2017-05-20T02:06:09.158Z,0
2017-05-20T02:07:08.825Z,0
2017-05-20T02:08:09.097Z,0
2017-05-20T02:09:08.790Z,0
2017-05-20T02:10:09.064Z,0
2017-05-20T02:11:09.124Z,0
2017-05-20T02:12:09.024Z,0
2017-05-20T02:13:09.008Z,0
2017-05-20T02:14:09.009Z,0
2017-05-20T02:15:08.376Z,0
2017-05-20T02:16:08.346Z,0
2017-05-20T02:17:08.640Z,0
2017-05-20T02:18:08.924Z,0
2017-05-20T02:19:08.918Z,0
2017-05-20T02:20:08.584Z,0
2017-05-20T02:21:08.862Z,0
2017-05-20T02:22:08.905Z,0
2017-05-20T02:23:08.831Z,0
2017-05-20T02:24:08.808Z,0
2017-05-20T02:25:08.796Z,0
2017-05-20T02:26:08.463Z,0
2017-05-20T02:27:08.753Z,0
2017-05-20T02:28:08.430Z,0
2017-05-20T02:29:08.408Z,0
2017-05-20T02:30:08.393Z,0
2017-05-20T02:31:08.682Z,0
2017-05-20T02:32:08.671Z,0
2017-05-20T02:33:08.634Z,0
2017-05-20T02:34:08.332Z,0
2017-05-20T02:35:08.615Z,0
2017-05-20T02:36:07.979Z,0
2017-05-20T02:37:08.584Z,0
2017-05-20T02:38:08.559Z,0
2017-05-20T02:39:08.521Z,0
2017-05-20T02:40:08.523Z,0
2017-05-20T02:41:08.489Z,0
2017-05-20T02:42:07.874Z,0
2017-05-20T02:43:08.161Z,0
2017-05-20T02:44:08.119Z,0
2017-05-20T02:45:08.107Z,0
2017-05-20T02:46:08.399Z,0
2017-05-20T02:47:08.067Z,0
2017-05-20T02:48:08.066Z,0
2017-05-20T02:49:08.350Z,0
2017-05-20T02:50:07.726Z,0
2017-05-20T02:51:08.008Z,0
2017-05-20T02:52:07.985Z,0
2017-05-20T02:53:07.958Z,0
2017-05-20T02:54:07.932Z,0
2017-05-20T02:55:07.929Z,0
2017-05-20T02:56:08.211Z,0
2017-05-20T02:57:07.889Z,0
2017-05-20T02:58:07.557Z,0
2017-05-20T02:59:07.562Z,0
2017-05-20T03:00:07.817Z,0
2017-05-20T03:01:08.127Z,0
2017-05-20T03:02:08.093Z,0
2017-05-20T03:03:07.474Z,0
2017-05-20T03:04:07.449Z,0
2017-05-20T03:05:07.732Z,0
2017-05-20T03:06:07.729Z,0
2017-05-20T03:07:07.399Z,0
2017-05-20T03:08:07.686Z,0
2017-05-20T03:09:07.115Z,0
2017-05-20T03:10:07.036Z,0
2017-05-20T03:11:07.320Z,0
2017-05-20T03:12:07.599Z,0
2017-05-20T03:13:07.601Z,0
2017-05-20T03:14:07.552Z,0
2017-05-20T03:15:07.546Z,0
2017-05-20T03:16:07.533Z,0
2017-05-20T03:17:07.820Z,0
2017-05-20T03:18:07.798Z,0
2017-05-20T03:19:07.173Z,0
2017-05-20T03:20:07.759Z,0
2017-05-20T03:21:07.729Z,0
2017-05-20T03:22:07.429Z,0
2017-05-20T03:23:07.697Z,0
2017-05-20T03:24:07.083Z,0
2017-05-20T03:25:07.659Z,0
2017-05-20T03:26:07.346Z,5
2017-05-20T03:27:07.024Z,5
2017-05-20T03:28:07.311Z,5
2017-05-20T03:29:07.611Z,5
2017-05-20T03:30:07.287Z,5
2017-05-20T03:31:07.546Z,5
2017-05-20T03:32:06.929Z,5
2017-05-20T03:33:07.212Z,5
2017-05-20T03:34:07.501Z,5
2017-05-20T03:35:07.186Z,10
2017-05-20T03:36:07.157Z,10
2017-05-20T03:37:07.439Z,10
2017-05-20T03:38:07.112Z,10
2017-05-20T03:39:07.107Z,10
2017-05-20T03:40:07.372Z,10
2017-05-20T03:41:07.071Z,15
2017-05-20T03:42:07.356Z,15
2017-05-20T03:43:07.343Z,15
2017-05-20T03:44:07.007Z,15
2017-05-20T03:45:07.311Z,15
2017-05-20T03:46:07.277Z,15
2017-05-20T03:47:06.953Z,15
2017-05-20T03:48:06.932Z,20
2017-05-20T03:49:06.914Z,20
2017-05-20T03:50:06.603Z,20
2017-05-20T03:51:07.176Z,20
2017-05-20T03:52:07.166Z,25
2017-05-20T03:53:07.160Z,25
2017-05-20T03:54:06.831Z,25
2017-05-20T03:55:06.802Z,30
2017-05-20T03:56:06.777Z,30
2017-05-20T03:57:07.054Z,30
2017-05-20T03:58:07.043Z,35
2017-05-20T03:59:07.032Z,35
2017-05-20T04:00:07.019Z,35
2017-05-20T04:01:06.981Z,35
2017-05-20T04:02:06.976Z,35
2017-05-20T04:03:06.947Z,35
2017-05-20T04:04:06.944Z,40
2017-05-20T04:05:06.626Z,40
2017-05-20T04:06:06.597Z,40
2017-05-20T04:07:06.571Z,40
2017-05-20T04:08:06.853Z,40
2017-05-20T04:09:06.849Z,45
2017-05-20T04:10:05.916Z,45
2017-05-20T04:11:06.201Z,50
2017-05-20T04:12:06.785Z,50
2017-05-20T04:13:06.167Z,55
2017-05-20T04:14:06.458Z,55
2017-05-20T04:15:06.126Z,60
2017-05-20T04:16:06.412Z,60
2017-05-20T04:17:06.701Z,60
2017-05-20T04:18:06.689Z,60
2017-05-20T04:19:06.348Z,60
2017-05-20T04:20:06.031Z,60
2017-05-20T04:21:06.625Z,65
2017-05-20T04:22:06.602Z,65
2017-05-20T04:23:06.592Z,70
2017-05-20T04:24:06.579Z,75
2017-05-20T04:25:06.555Z,80
2017-05-20T04:26:06.536Z,85
2017-05-20T04:27:06.520Z,90
2017-05-20T04:28:06.188Z,95
2017-05-20T04:29:06.175Z,100
2017-05-20T04:30:06.149Z,100
2017-05-20T04:31:06.456Z,100
2017-05-20T04:32:06.436Z,105
2017-05-20T04:33:06.420Z,105
2017-05-20T04:34:06.386Z,105
2017-05-20T04:35:06.375Z,105
2017-05-20T04:36:06.355Z,105
2017-05-20T04:37:06.329Z,105
2017-05-20T04:38:06.005Z,105
2017-05-20T04:39:06.297Z,110
2017-05-20T04:40:05.974Z,110
2017-05-20T04:41:05.647Z,115
2017-05-20T04:42:05.945Z,115
2017-05-20T04:43:05.916Z,115
2017-05-20T04:44:05.895Z,120
2017-05-20T04:45:05.570Z,120
2017-05-20T04:46:05.570Z,120
2017-05-20T04:47:05.853Z,125
2017-05-20T04:48:05.817Z,125
2017-05-20T04:49:05.803Z,130
2017-05-20T04:50:05.788Z,130
2017-05-20T04:51:05.766Z,130
2017-05-20T04:52:05.439Z,130
2017-05-20T04:53:05.727Z,130
2017-05-20T04:54:05.724Z,130
2017-05-20T04:55:05.397Z,130
2017-05-20T04:56:05.977Z,135
2017-05-20T04:57:05.953Z,135
2017-05-20T04:58:05.646Z,140
2017-05-20T04:59:05.329Z,145
2017-05-20T05:00:04.994Z,150
2017-05-20T05:01:05.593Z,155
2017-05-20T05:02:05.561Z,155
2017-05-20T05:03:05.544Z,155
2017-05-20T05:04:04.927Z,150
2017-05-20T05:05:05.825Z,150
2017-05-20T05:06:05.189Z,150
2017-05-20T05:07:05.472Z,155
2017-05-20T05:08:05.453Z,155
2017-05-20T05:09:05.138Z,160
2017-05-20T05:10:05.729Z,165
2017-05-20T05:11:05.396Z,170
2017-05-20T05:12:05.073Z,170
2017-05-20T05:13:05.659Z,165
2017-05-20T05:14:05.651Z,165
2017-05-20T05:15:05.032Z,180
2017-05-20T05:16:05.613Z,180
2017-05-20T05:17:05.585Z,180
2017-05-20T05:18:05.592Z,185
2017-05-20T05:19:05.558Z,185
2017-05-20T05:20:05.227Z,190
2017-05-20T05:21:05.509Z,190
2017-05-20T05:22:05.213Z,195
2017-05-20T05:23:04.871Z,195
2017-05-20T05:24:05.461Z,200
2017-05-20T05:25:05.142Z,205
2017-05-20T05:26:05.433Z,215
2017-05-20T05:27:05.408Z,225
2017-05-20T05:28:04.782Z,230
2017-05-20T05:29:05.368Z,240
2017-05-20T05:30:05.335Z,245
2017-05-20T05:31:05.021Z,250
2017-05-20T05:32:05.010Z,255
2017-05-20T05:33:04.997Z,260
2017-05-20T05:34:05.275Z,265
2017-05-20T05:35:05.257Z,270
2017-05-20T05:36:05.235Z,270
2017-05-20T05:37:04.918Z,275
2017-05-20T05:38:04.897Z,275
2017-05-20T05:39:04.882Z,275
2017-05-20T05:40:04.875Z,280
2017-05-20T05:41:04.846Z,285
2017-05-20T05:42:04.831Z,285
2017-05-20T05:43:05.108Z,290
2017-05-20T05:44:05.087Z,300
2017-05-20T05:45:04.775Z,300
2017-05-20T05:46:04.140Z,305
2017-05-20T05:47:05.022Z,300
2017-05-20T05:48:05.016Z,305
2017-05-20T05:49:04.986Z,315
2017-05-20T05:50:04.982Z,315
2017-05-20T05:51:04.970Z,320
2017-05-20T05:52:04.948Z,325
2017-05-20T05:53:04.932Z,330
2017-05-20T05:54:04.912Z,330
2017-05-20T05:55:04.882Z,325
2017-05-20T05:56:04.866Z,325
2017-05-20T05:57:04.909Z,325
2017-05-20T05:58:04.836Z,330
2017-05-20T05:59:04.816Z,340
2017-05-20T06:00:04.511Z,345
2017-05-20T06:01:04.768Z,355
2017-05-20T06:02:04.770Z,375
2017-05-20T06:03:04.749Z,375
2017-05-20T06:04:04.422Z,380
2017-05-20T06:05:04.405Z,385
2017-05-20T06:06:04.398Z,390
2017-05-20T06:07:04.677Z,390
2017-05-20T06:08:04.352Z,390
2017-05-20T06:09:04.635Z,395
2017-05-20T06:10:04.311Z,400
2017-05-20T06:11:03.688Z,405
2017-05-20T06:12:04.280Z,410
2017-05-20T06:13:04.569Z,415
2017-05-20T06:14:04.555Z,425
2017-05-20T06:15:04.515Z,435
2017-05-20T06:16:04.512Z,445
2017-05-20T06:17:04.566Z,460
2017-05-20T06:18:04.473Z,470
2017-05-20T06:19:04.463Z,485
2017-05-20T06:20:04.454Z,495
2017-05-20T06:21:04.425Z,500
2017-05-20T06:22:03.857Z,505
2017-05-20T06:23:04.385Z,500
2017-05-20T06:24:04.055Z,500
2017-05-20T06:25:04.353Z,495
2017-05-20T06:26:04.327Z,490
2017-05-20T06:27:04.303Z,490
2017-05-20T06:28:03.376Z,490
2017-05-20T06:29:03.986Z,495
2017-05-20T06:30:03.658Z,495
2017-05-20T06:31:03.631Z,495
2017-05-20T06:32:03.928Z,505
2017-05-20T06:33:03.594Z,510
2017-05-20T06:34:03.583Z,515
2017-05-20T06:35:03.568Z,525
2017-05-20T06:36:03.549Z,535
2017-05-20T06:37:03.543Z,545
2017-05-20T06:38:03.828Z,560
2017-05-20T06:39:04.118Z,575
2017-05-20T06:40:03.793Z,585
2017-05-20T06:41:03.786Z,600
2017-05-20T06:42:03.508Z,605
2017-05-20T06:43:03.447Z,610
2017-05-20T06:44:03.440Z,620
2017-05-20T06:45:03.412Z,630
2017-05-20T06:46:03.390Z,645
2017-05-20T06:47:03.689Z,655
2017-05-20T06:48:03.558Z,670
2017-05-20T06:49:03.668Z,685
2017-05-20T06:50:03.642Z,705
2017-05-20T06:51:03.918Z,720
2017-05-20T06:52:03.596Z,740
2017-05-20T06:53:04.094Z,740
2017-05-20T06:54:03.582Z,730
2017-05-20T06:55:03.581Z,715
2017-05-20T06:56:03.859Z,700
2017-05-20T06:57:03.543Z,680
2017-05-20T06:58:03.529Z,680
2017-05-20T06:59:03.509Z,680
2017-05-20T07:00:03.507Z,690
2017-05-20T07:01:03.484Z,700
2017-05-20T07:02:03.465Z,720
2017-05-20T07:03:03.761Z,735
2017-05-20T07:04:03.439Z,760
2017-05-20T07:05:03.421Z,790
2017-05-20T07:06:03.742Z,830
2017-05-20T07:07:03.091Z,850
2017-05-20T07:08:03.389Z,875
2017-05-20T07:09:03.369Z,900
2017-05-20T07:10:03.669Z,915
2017-05-20T07:11:03.645Z,990
2017-05-20T07:12:03.331Z,1055
2017-05-20T07:13:02.712Z,885
2017-05-20T07:14:17.194Z,835
2017-05-20T07:15:03.598Z,820
2017-05-20T07:16:02.971Z,800
2017-05-20T07:17:02.961Z,790
2017-05-20T07:18:03.460Z,780
2017-05-20T07:19:16.633Z,770
2017-05-20T07:20:02.923Z,775
2017-05-20T07:21:03.510Z,790
2017-05-20T07:22:03.499Z,810
2017-05-20T07:23:16.827Z,815
2017-05-20T07:24:03.391Z,815
2017-05-20T07:25:03.470Z,825
2017-05-20T07:26:03.444Z,815
2017-05-20T07:27:03.135Z,820
2017-05-20T07:28:03.636Z,870
2017-05-20T07:29:03.410Z,925
2017-05-20T07:30:03.389Z,945
2017-05-20T07:31:03.073Z,975
2017-05-20T07:32:03.367Z,1000
2017-05-20T07:33:03.048Z,1025
2017-05-20T07:34:03.086Z,1045
2017-05-20T07:35:02.705Z,1040
2017-05-20T07:36:03.000Z,1020
2017-05-20T07:37:02.983Z,990
2017-05-20T07:38:03.297Z,985
2017-05-20T07:39:02.961Z,1005
2017-05-20T07:40:03.249Z,1025
2017-05-20T07:41:02.931Z,1015
2017-05-20T07:42:02.913Z,990
2017-05-20T07:43:02.922Z,970
2017-05-20T07:44:02.901Z,985
2017-05-20T07:45:02.888Z,985
2017-05-20T07:46:02.877Z,1000
2017-05-20T07:47:02.868Z,1035
2017-05-20T07:48:02.865Z,1020
2017-05-20T07:49:02.836Z,1040
2017-05-20T07:50:02.821Z,1045
2017-05-20T07:51:02.806Z,1045
2017-05-20T07:52:02.503Z,1070
2017-05-20T07:53:02.790Z,1065
2017-05-20T07:54:02.984Z,1100
2017-05-20T07:55:03.062Z,1140
2017-05-20T07:56:02.757Z,1185
2017-05-20T07:57:02.735Z,1220
2017-05-20T07:58:02.717Z,1230
2017-05-20T07:59:02.607Z,1265
2017-05-20T08:00:16.381Z,1380
2017-05-20T08:01:02.981Z,1605
2017-05-20T08:02:02.982Z,1565
2017-05-20T08:03:16.439Z,1345
2017-05-20T08:04:03.152Z,1345
2017-05-20T08:05:02.918Z,1265
2017-05-20T08:06:02.605Z,1370
2017-05-20T08:07:02.907Z,1545
2017-05-20T08:08:02.280Z,1900
2017-05-20T08:09:02.577Z,1290
2017-05-20T08:10:02.872Z,1225
2017-05-20T08:11:02.850Z,1140
2017-05-20T08:12:02.828Z,1090
2017-05-20T08:13:02.817Z,1145
2017-05-20T08:14:02.208Z,1165
2017-05-20T08:15:02.809Z,1160
2017-05-20T08:16:02.791Z,1210
2017-05-20T08:17:02.771Z,1230
2017-05-20T08:18:02.155Z,1270
2017-05-20T08:19:02.762Z,1315
2017-05-20T08:20:02.744Z,1360
2017-05-20T08:21:02.728Z,1325
2017-05-20T08:22:02.713Z,1315
2017-05-20T08:23:02.712Z,1265
2017-05-20T08:24:02.689Z,1210
2017-05-20T08:25:02.684Z,1175
2017-05-20T08:26:02.664Z,1180
2017-05-20T08:27:02.648Z,1180
2017-05-20T08:28:02.689Z,1200
2017-05-20T08:29:02.625Z,1265
2017-05-20T08:30:02.628Z,1360
2017-05-20T08:31:02.597Z,1490
2017-05-20T08:32:02.583Z,1550
2017-05-20T08:33:02.596Z,1495
2017-05-20T08:34:02.562Z,1445
2017-05-20T08:35:02.461Z,1385
2017-05-20T08:36:02.235Z,1335
2017-05-20T08:37:02.544Z,1330
2017-05-20T08:38:02.215Z,1330
2017-05-20T08:39:02.715Z,1340
2017-05-20T08:40:02.707Z,1355
2017-05-20T08:41:02.480Z,1410
2017-05-20T08:42:02.176Z,1495
2017-05-20T08:43:02.157Z,1555
2017-05-20T08:44:02.147Z,1575
2017-05-20T08:45:02.135Z,1550
2017-05-20T08:46:02.415Z,1565
2017-05-20T08:47:02.409Z,1505
2017-05-20T08:48:02.103Z,1450
2017-05-20T08:49:02.376Z,1445
2017-05-20T08:50:02.074Z,1415
2017-05-20T08:51:02.062Z,1440
2017-05-20T08:52:02.047Z,1530
2017-05-20T08:53:02.338Z,1620
2017-05-20T08:54:02.325Z,1680
2017-05-20T08:55:02.023Z,1725
2017-05-20T08:56:02.302Z,1750
2017-05-20T08:57:01.977Z,1850
2017-05-20T08:58:02.267Z,1915
2017-05-20T08:59:02.254Z,1765
2017-05-20T09:00:02.256Z,1585
2017-05-20T09:01:02.246Z,1530
2017-05-20T09:02:02.225Z,1575
2017-05-20T09:03:02.221Z,1690
2017-05-20T09:04:02.187Z,1900
2017-05-20T09:05:02.197Z,2260
2017-05-20T09:06:02.175Z,2445
2017-05-20T09:07:02.178Z,3305
2017-05-20T09:08:02.185Z,2450
2017-05-20T09:09:02.148Z,2570
2017-05-20T09:10:02.016Z,2795
2017-05-20T09:11:02.345Z,2750
2017-05-20T09:12:02.111Z,2390
2017-05-20T09:13:02.101Z,2040
2017-05-20T09:14:02.081Z,1785
2017-05-20T09:15:02.275Z,1715
2017-05-20T09:16:02.053Z,1795
2017-05-20T09:17:02.048Z,1990
2017-05-20T09:18:01.736Z,3140
2017-05-20T09:19:01.476Z,2445
2017-05-20T09:20:02.004Z,2320
2017-05-20T09:21:01.712Z,2345
2017-05-20T09:22:01.987Z,1940
2017-05-20T09:23:01.988Z,2280
2017-05-20T09:24:01.969Z,2365
2017-05-20T09:25:01.960Z,3260
2017-05-20T09:26:01.991Z,2445
2017-05-20T09:27:01.936Z,2055
2017-05-20T09:28:01.936Z,1955
2017-05-20T09:29:01.615Z,2075
2017-05-20T09:30:01.906Z,2750
2017-05-20T09:31:01.579Z,4145
2017-05-20T09:32:01.568Z,3210
2017-05-20T09:33:01.567Z,3040
2017-05-20T09:34:01.866Z,2595
2017-05-20T09:35:01.260Z,2445
2017-05-20T09:36:01.845Z,2445
2017-05-20T09:37:01.520Z,2400
2017-05-20T09:38:01.520Z,2265
2017-05-20T09:39:01.565Z,2315
2017-05-20T09:40:01.790Z,2150
2017-05-20T09:41:15.176Z,2070
2017-05-20T09:42:01.778Z,2140
2017-05-20T09:43:01.757Z,2220
2017-05-20T09:44:01.745Z,2230
2017-05-20T09:45:01.734Z,2250
2017-05-20T09:46:01.626Z,2305
2017-05-20T09:47:01.423Z,2220
2017-05-20T09:48:01.688Z,2210
2017-05-20T09:49:01.680Z,2250
2017-05-20T09:50:01.380Z,2280
2017-05-20T09:51:01.555Z,2285
2017-05-20T09:52:01.342Z,2280
2017-05-20T09:53:01.337Z,2260
2017-05-20T09:54:01.310Z,2230
2017-05-20T09:55:01.299Z,2175
2017-05-20T09:56:01.295Z,2100
2017-05-20T09:57:01.280Z,2120
2017-05-20T09:58:01.264Z,2235
2017-05-20T09:59:01.549Z,2355
2017-05-20T10:00:01.240Z,2345
2017-05-20T10:01:01.229Z,2365
2017-05-20T10:02:01.508Z,2380
2017-05-20T10:03:00.906Z,2425
2017-05-20T10:04:01.475Z,2510
2017-05-20T10:05:01.182Z,2560
2017-05-20T10:06:01.155Z,2640
2017-05-20T10:07:01.449Z,2700
2017-05-20T10:08:01.433Z,2640
2017-05-20T10:09:01.424Z,2525
2017-05-20T10:10:01.106Z,2395
2017-05-20T10:11:01.406Z,2480
2017-05-20T10:12:01.392Z,2510
2017-05-20T10:13:00.763Z,2400
2017-05-20T10:14:00.763Z,2275
2017-05-20T10:15:01.362Z,2265
2017-05-20T10:16:01.327Z,2200
2017-05-20T10:17:00.723Z,2200
2017-05-20T10:18:01.001Z,2210
2017-05-20T10:19:00.691Z,2190
2017-05-20T10:20:00.978Z,2225
2017-05-20T10:21:00.661Z,2330
2017-05-20T10:22:01.242Z,2345
2017-05-20T10:23:01.233Z,2380
2017-05-20T10:24:01.228Z,2345
2017-05-20T10:25:00.610Z,2310
2017-05-20T10:26:01.186Z,2235
2017-05-20T10:27:01.185Z,2190
2017-05-20T10:28:01.186Z,2195
2017-05-20T10:29:00.848Z,2170
2017-05-20T10:30:01.139Z,2155
2017-05-20T10:31:01.127Z,2100
2017-05-20T10:32:01.106Z,2055
2017-05-20T10:33:01.100Z,2040
2017-05-20T10:34:00.773Z,2055
2017-05-20T10:35:01.067Z,2080
2017-05-20T10:36:01.057Z,2050
2017-05-20T10:37:00.749Z,2030
2017-05-20T10:38:00.730Z,1980
2017-05-20T10:39:00.711Z,1930
2017-05-20T10:40:00.720Z,1910
2017-05-20T10:41:00.695Z,1925
2017-05-20T10:42:00.669Z,1935
2017-05-20T10:43:00.652Z,1960
2017-05-20T10:44:00.646Z,2070
2017-05-20T10:45:00.650Z,2105
2017-05-20T10:46:00.619Z,2070
2017-05-20T10:47:00.600Z,2010
2017-05-20T10:48:00.596Z,1970
2017-05-20T10:49:00.588Z,1900
2017-05-20T10:50:00.568Z,1845
2017-05-20T10:51:00.854Z,1825
2017-05-20T10:52:00.561Z,1810
2017-05-20T10:53:00.220Z,1810
2017-05-20T10:54:01.019Z,1795
2017-05-20T10:55:00.511Z,1785
2017-05-20T10:56:00.185Z,1760
2017-05-20T10:57:00.473Z,1725
2017-05-20T10:58:00.470Z,1695
2017-05-20T10:59:00.765Z,1680
2017-05-20T11:00:00.444Z,1635
2017-05-20T11:01:00.427Z,1620
2017-05-20T11:02:00.111Z,1645
2017-05-20T11:03:00.406Z,1665
2017-05-20T11:04:00.386Z,1695
2017-05-20T11:05:00.373Z,1710
2017-05-20T11:06:00.352Z,1745
2017-05-20T11:07:00.680Z,1755
2017-05-20T11:08:00.337Z,1730
2017-05-20T11:09:00.318Z,1685
2017-05-20T11:10:00.298Z,1700
2017-05-20T11:11:00.608Z,1705
2017-05-20T11:12:00.279Z,1670
2017-05-20T11:13:00.566Z,1550
2017-05-20T11:13:59.646Z,1425
2017-05-20T11:15:00.227Z,1335
2017-05-20T11:16:00.217Z,1340
2017-05-20T11:17:00.223Z,1350
2017-05-20T11:18:00.193Z,1340
2017-05-20T11:19:00.194Z,1320
2017-05-20T11:20:00.159Z,1290
2017-05-20T11:21:00.474Z,1245
2017-05-20T11:22:00.142Z,1240
2017-05-20T11:22:59.837Z,1275
2017-05-20T11:24:00.434Z,1345
2017-05-20T11:25:00.438Z,1320
2017-05-20T11:25:59.791Z,1230
2017-05-20T11:27:00.395Z,1170
2017-05-20T11:28:00.365Z,1130
2017-05-20T11:29:00.056Z,1175
2017-05-20T11:30:00.342Z,1250
2017-05-20T11:31:00.025Z,1255
2017-05-20T11:32:00.314Z,1185
2017-05-20T11:32:59.999Z,1065
2017-05-20T11:33:59.985Z,995
2017-05-20T11:35:00.270Z,1045
2017-05-20T11:36:00.265Z,1080
2017-05-20T11:36:59.943Z,1105
2017-05-20T11:37:59.913Z,1075
2017-05-20T11:38:59.912Z,1035
2017-05-20T11:39:59.889Z,995
2017-05-20T11:40:59.875Z,980
2017-05-20T11:41:59.869Z,935
2017-05-20T11:42:59.551Z,800
2017-05-20T11:43:59.828Z,715
2017-05-20T11:45:00.136Z,810
2017-05-20T11:46:00.182Z,900
2017-05-20T11:46:59.188Z,905
2017-05-20T11:47:59.782Z,925
2017-05-20T11:48:59.775Z,940
2017-05-20T11:49:59.157Z,915
2017-05-20T11:50:59.130Z,915
2017-05-20T11:51:59.725Z,980
2017-05-20T11:53:00.005Z,1010
2017-05-20T11:53:59.079Z,970
2017-05-20T11:54:59.064Z,910
2017-05-20T11:55:59.963Z,905
2017-05-20T11:56:59.338Z,900
2017-05-20T11:57:59.636Z,885
2017-05-20T11:58:59.911Z,840
2017-05-20T11:59:59.296Z,835
2017-05-20T12:00:59.265Z,835
2017-05-20T12:01:59.258Z,815
2017-05-20T12:02:59.244Z,815
2017-05-20T12:03:59.532Z,825
2017-05-20T12:04:59.532Z,770
2017-05-20T12:05:59.506Z,750
2017-05-20T12:06:59.184Z,775
2017-05-20T12:07:59.784Z,820
2017-05-20T12:08:59.772Z,820
2017-05-20T12:09:59.435Z,785
2017-05-20T12:10:59.114Z,770
2017-05-20T12:11:58.801Z,875
2017-05-20T12:12:58.783Z,990
2017-05-20T12:13:58.766Z,1065
2017-05-20T12:14:59.664Z,1040
2017-05-20T12:15:59.338Z,1025
2017-05-20T12:16:59.030Z,1010
2017-05-20T12:17:59.319Z,1005
2017-05-20T12:18:59.588Z,995
2017-05-20T12:19:59.593Z,985
2017-05-20T12:20:59.572Z,985
2017-05-20T12:21:59.243Z,990
2017-05-20T12:22:59.229Z,970
2017-05-20T12:23:58.906Z,995
2017-05-20T12:24:59.523Z,1010
2017-05-20T12:25:59.181Z,990
2017-05-20T12:26:59.172Z,1035
2017-05-20T12:27:58.854Z,1020
2017-05-20T12:28:59.157Z,995
2017-05-20T12:29:58.527Z,985
2017-05-20T12:30:58.501Z,965
2017-05-20T12:31:58.491Z,975
2017-05-20T12:32:59.081Z,985
2017-05-20T12:33:59.071Z,955
2017-05-20T12:34:59.367Z,1010
2017-05-20T12:35:58.734Z,1040
2017-05-20T12:36:59.022Z,1120
2017-05-20T12:37:58.410Z,1215
2017-05-20T12:38:58.692Z,1315
2017-05-20T12:39:59.267Z,1305
2017-05-20T12:40:58.973Z,1235
2017-05-20T12:41:58.960Z,1175
2017-05-20T12:42:58.927Z,1105
2017-05-20T12:43:58.919Z,1080
2017-05-20T12:44:58.916Z,1105
2017-05-20T12:45:58.897Z,1110
2017-05-20T12:46:58.575Z,1075
2017-05-20T12:47:59.161Z,1015
2017-05-20T12:48:58.547Z,990
2017-05-20T12:49:59.144Z,970
2017-05-20T12:50:58.817Z,935
2017-05-20T12:51:58.509Z,905
2017-05-20T12:52:58.487Z,915
2017-05-20T12:53:58.475Z,915
2017-05-20T12:54:58.457Z,940
2017-05-20T12:55:58.444Z,960
2017-05-20T12:56:58.724Z,970
2017-05-20T12:57:58.417Z,970
2017-05-20T12:58:58.395Z,970
2017-05-20T12:59:58.385Z,970
2017-05-20T13:00:58.372Z,975
2017-05-20T13:01:58.667Z,970
2017-05-20T13:02:58.948Z,965
2017-05-20T13:03:58.636Z,940
2017-05-20T13:04:58.631Z,905
2017-05-20T13:05:58.608Z,880
2017-05-20T13:06:58.896Z,875
2017-05-20T13:07:58.592Z,880
2017-05-20T13:08:58.858Z,925
2017-05-20T13:09:58.557Z,985
2017-05-20T13:10:58.857Z,1025
2017-05-20T13:11:58.520Z,1060
2017-05-20T13:12:58.214Z,1095
2017-05-20T13:13:58.490Z,1130
2017-05-20T13:14:58.168Z,1105
2017-05-20T13:15:58.158Z,1100
2017-05-20T13:16:58.150Z,1120
2017-05-20T13:17:58.149Z,1130
2017-05-20T13:18:58.108Z,1080
2017-05-20T13:19:58.401Z,1000
2017-05-20T13:20:58.692Z,930
2017-05-20T13:21:58.692Z,870
2017-05-20T13:22:58.370Z,825
2017-05-20T13:23:58.349Z,825
2017-05-20T13:24:58.388Z,905
2017-05-20T13:25:58.326Z,1125
2017-05-20T13:26:58.322Z,1150
2017-05-20T13:27:57.698Z,1005
2017-05-20T13:28:58.278Z,1020
2017-05-20T13:29:58.273Z,1170
2017-05-20T13:30:58.270Z,1220
2017-05-20T13:31:58.232Z,1100
2017-05-20T13:32:58.527Z,1040
2017-05-20T13:33:58.203Z,1040
2017-05-20T13:34:58.188Z,1005
2017-05-20T13:35:58.479Z,950
2017-05-20T13:36:58.165Z,955
2017-05-20T13:37:58.155Z,980
2017-05-20T13:38:58.449Z,970
2017-05-20T13:39:58.425Z,965
2017-05-20T13:40:57.502Z,945
2017-05-20T13:41:58.409Z,920
2017-05-20T13:42:58.386Z,905
2017-05-20T13:43:57.762Z,930
2017-05-20T13:44:58.370Z,910
2017-05-20T13:45:57.737Z,890
2017-05-20T13:46:57.732Z,870
2017-05-20T13:47:58.061Z,875
2017-05-20T13:48:58.294Z,850
2017-05-20T13:49:58.288Z,805
2017-05-20T13:50:57.668Z,800
2017-05-20T13:51:58.246Z,875